Terminal Aerodrome Forecast
Issued by NWS King Salmon, AK

Home | Current Version | Previous Version | Text Only | Print | Product List | Glossary On
Versions: 1 2 3 4 5 6 7 8 9 10 11 12 13 14 15 16 17 18 19 20 21 22 23 24 25 26 27 28 29 30 31 32 33 34 35
000
FTAK31 PANC 282103 AAA
TAFAKN
TAF AMD
PAKN 282103Z 2821/2918 21013G20KT P6SM SCT006 OVC015
      TEMPO 2821/2823 BKN006
     FM290000 24010KT P6SM -SHRA BKN025 OVC040
     FM290900 35007KT P6SM VCSH SCT025 BKN050=

USA.gov is the U.S. government's official web portal to all federal, state and local government web resources and services.